Time;durP1;ratioP1;P1;durP2;ratioP2;P2;SDS_P1;SDS_P2;PMS_P1;PMS_P2;Temp;Humidity;BMP_temperature;BMP_pressure;BME280_temperature;BME280_humidity;BME280_pressure;Samples;Min_cycle;Max_cycle;Signal;HPM_P1;HPM_P2
2023/10/18 00:01:23;;;;;;;2.95;1.08;;;;;;;;;;6154548;23;20043;-87
2023/10/18 00:03:51;;;;;;;1.20;0.50;;;;;;;;;;6155264;23;20092;-87
2023/10/18 00:06:18;;;;;;;1.98;0.80;;;;;;;;;;6154797;23;20017;-86
2023/10/18 00:08:45;;;;;;;1.02;0.55;;;;;;;;;;6155349;23;20012;-87
2023/10/18 00:11:11;;;;;;;;;;;;;;;;;;6155828;23;20568;-86
2023/10/18 00:13:37;;;;;;;1.25;0.70;;;;;;;;;;6156229;23;19936;-87
2023/10/18 00:16:05;;;;;;;1.70;0.60;;;;;;;;;;6157392;23;20057;-87
2023/10/18 00:18:32;;;;;;;0.98;0.40;;;;;;;;;;6158234;23;20810;-86
2023/10/18 00:20:59;;;;;;;2.60;0.85;;;;;;;;;;6161349;23;20017;-87
2023/10/18 00:23:25;;;;;;;0.65;0.30;;;;;;;;;;6156936;23;20013;-87
2023/10/18 00:25:51;;;;;;;0.30;0.22;;;;;;;;;;6155338;23;20009;-87
2023/10/18 00:28:19;;;;;;;1.23;0.68;;;;;;;;;;6155229;23;20016;-87
2023/10/18 00:30:45;;;;;;;2.60;1.10;;;;;;;;;;6155452;23;20013;-87
2023/10/18 00:33:11;;;;;;;2.40;0.98;;;;;;;;;;6154654;23;20019;-87
2023/10/18 00:35:39;;;;;;;3.22;1.85;;;;;;;;;;6155253;23;20013;-87
2023/10/18 00:38:12;;;;;;;2.25;1.25;;;;;;;;;;6154738;23;20429;-86
2023/10/18 00:40:40;;;;;;;1.67;0.98;;;;;;;;;;6155199;23;20009;-86
2023/10/18 00:43:52;;;;;;;1.90;0.82;;;;;;;;;;6154173;23;20009;-86
2023/10/18 00:45:56;;;;;;;2.20;1.13;;;;;;;;;;6170750;23;20430;-86
2023/10/18 00:48:27;;;;;;;3.08;0.85;;;;;;;;;;6154232;23;20013;-87
2023/10/18 00:50:54;;;;;;;3.10;1.10;;;;;;;;;;6154936;23;20020;-86
2023/10/18 00:53:31;;;;;;;2.97;1.38;;;;;;;;;;6154086;23;20021;-87
2023/10/18 00:55:59;;;;;;;4.63;1.17;;;;;;;;;;6155080;23;20005;-87
2023/10/18 00:58:27;;;;;;;1.75;1.20;;;;;;;;;;6154535;23;20020;-87
2023/10/18 01:00:53;;;;;;;1.30;0.70;;;;;;;;;;6156709;23;20017;-87
2023/10/18 01:06:06;;;;;;;2.42;1.20;;;;;;;;;;6188111;23;20055;-87
2023/10/18 01:08:37;;;;;;;4.75;1.73;;;;;;;;;;6160675;23;20012;-88
2023/10/18 01:11:07;;;;;;;4.90;1.13;;;;;;;;;;6155743;23;20040;-88
2023/10/18 01:13:37;;;;;;;1.92;0.73;;;;;;;;;;6155081;23;20013;-88
2023/10/18 01:16:14;;;;;;;3.53;0.95;;;;;;;;;;6155448;23;20013;-88
2023/10/18 01:18:43;;;;;;;4.03;1.02;;;;;;;;;;6154946;23;20013;-88
2023/10/18 01:21:19;;;;;;;2.75;1.13;;;;;;;;;;6155233;23;20017;-88
2023/10/18 01:23:55;;;;;;;4.40;1.80;;;;;;;;;;6153439;23;20393;-88
2023/10/18 01:26:23;;;;;;;6.53;2.35;;;;;;;;;;6154185;23;20369;-88
2023/10/18 01:28:51;;;;;;;3.42;1.15;;;;;;;;;;6154477;23;20034;-87
2023/10/18 01:31:17;;;;;;;3.95;1.55;;;;;;;;;;6153583;23;20377;-87
2023/10/18 01:33:44;;;;;;;6.23;1.47;;;;;;;;;;6152356;23;20377;-88
2023/10/18 01:36:14;;;;;;;6.10;1.88;;;;;;;;;;6153148;23;20373;-88
2023/10/18 01:38:52;;;;;;;4.55;1.02;;;;;;;;;;6154694;23;20021;-87
2023/10/18 01:41:34;;;;;;;9.10;0.95;;;;;;;;;;6154720;23;20013;-87
2023/10/18 01:44:07;;;;;;;2.88;1.33;;;;;;;;;;6154992;23;20009;-88
2023/10/18 01:46:33;;;;;;;6.35;1.20;;;;;;;;;;6156044;23;20013;-87
2023/10/18 01:49:00;;;;;;;1.77;0.68;;;;;;;;;;6156749;23;20017;-87
2023/10/18 01:51:27;;;;;;;2.67;1.70;;;;;;;;;;6156631;23;20017;-87
2023/10/18 01:53:55;;;;;;;3.28;0.93;;;;;;;;;;6158629;23;20017;-87
2023/10/18 01:56:21;;;;;;;1.00;0.50;;;;;;;;;;6157172;23;20028;-87
2023/10/18 01:58:48;;;;;;;1.52;0.47;;;;;;;;;;6154973;23;20116;-87
2023/10/18 02:01:16;;;;;;;3.53;0.80;;;;;;;;;;6149467;23;20025;-87
2023/10/18 02:03:44;;;;;;;6.07;0.82;;;;;;;;;;6150280;23;20006;-88
2023/10/18 02:06:14;;;;;;;2.78;0.80;;;;;;;;;;6149920;23;20344;-88
2023/10/18 02:08:40;;;;;;;2.30;0.82;;;;;;;;;;6150542;23;20001;-88
2023/10/18 02:11:09;;;;;;;1.40;0.57;;;;;;;;;;6149882;23;20018;-88
2023/10/18 02:13:36;;;;;;;3.70;0.90;;;;;;;;;;6150369;23;20092;-87
2023/10/18 02:16:06;;;;;;;1.77;0.68;;;;;;;;;;6149499;23;20009;-88
2023/10/18 02:18:32;;;;;;;2.55;1.27;;;;;;;;;;6149915;23;20052;-88
2023/10/18 02:20:58;;;;;;;6.72;1.30;;;;;;;;;;6148043;23;20020;-88
2023/10/18 02:23:32;;;;;;;5.13;2.50;;;;;;;;;;6125374;23;20069;-88
2023/10/18 02:25:58;;;;;;;3.03;1.25;;;;;;;;;;6149671;23;20012;-88
2023/10/18 02:28:27;;;;;;;3.10;1.42;;;;;;;;;;6149578;23;20005;-88
2023/10/18 02:30:58;;;;;;;5.32;2.00;;;;;;;;;;6149487;23;20021;-88
2023/10/18 02:33:24;;;;;;;3.35;1.27;;;;;;;;;;6151059;23;20321;-88
2023/10/18 02:35:50;;;;;;;3.10;1.60;;;;;;;;;;6150779;23;20045;-88
2023/10/18 02:38:18;;;;;;;6.20;2.17;;;;;;;;;;6154790;23;20010;-88
2023/10/18 02:40:45;;;;;;;2.97;1.30;;;;;;;;;;6156256;23;20009;-88
2023/10/18 02:43:11;;;;;;;3.70;1.55;;;;;;;;;;6151807;23;20476;-87
2023/10/18 02:45:42;;;;;;;3.95;1.77;;;;;;;;;;6150730;23;20358;-87
2023/10/18 02:48:14;;;;;;;5.47;2.38;;;;;;;;;;6151009;23;20024;-88
2023/10/18 02:50:40;;;;;;;3.88;0.88;;;;;;;;;;6151740;23;20009;-87
2023/10/18 02:53:06;;;;;;;3.03;1.33;;;;;;;;;;6151560;23;20021;-88
2023/10/18 02:55:38;;;;;;;2.45;1.00;;;;;;;;;;6152054;23;20410;-88
2023/10/18 02:58:06;;;;;;;2.40;1.50;;;;;;;;;;6150834;23;20053;-87
2023/10/18 03:00:34;;;;;;;4.55;2.17;;;;;;;;;;6151272;23;20076;-87
2023/10/18 03:03:01;;;;;;;2.35;0.90;;;;;;;;;;6156116;23;20025;-88
2023/10/18 03:05:28;;;;;;;3.70;1.88;;;;;;;;;;6156274;23;20115;-88
2023/10/18 03:07:54;;;;;;;6.95;1.83;;;;;;;;;;6155803;23;20083;-88
2023/10/18 03:10:32;;;;;;;6.03;2.63;;;;;;;;;;6156598;23;20005;-87
2023/10/18 03:12:59;;;;;;;6.80;1.75;;;;;;;;;;6155824;23;20096;-87
2023/10/18 03:15:25;;;;;;;7.82;3.33;;;;;;;;;;6156585;23;20355;-87
2023/10/18 03:17:51;;;;;;;7.13;2.60;;;;;;;;;;6155978;23;20104;-87
2023/10/18 03:20:23;;;;;;;3.78;1.80;;;;;;;;;;6157970;23;20087;-87
2023/10/18 03:22:50;;;;;;;6.18;2.22;;;;;;;;;;6157449;23;20443;-87
2023/10/18 03:25:37;;;;;;;5.20;2.58;;;;;;;;;;6163218;23;20012;-87
2023/10/18 03:28:12;;;;;;;2.58;1.67;;;;;;;;;;6184542;23;20023;-87
2023/10/18 03:33:08;;;;;;;4.50;2.08;;;;;;;;;;6183184;23;20113;-88
2023/10/18 03:35:39;;;;;;;9.50;4.40;;;;;;;;;;6157251;23;20009;-88
2023/10/18 03:38:11;;;;;;;2.65;1.40;;;;;;;;;;6156408;23;20579;-88
2023/10/18 03:40:37;;;;;;;3.05;1.95;;;;;;;;;;6156407;23;20036;-87
2023/10/18 03:43:09;;;;;;;25.00;2.35;;;;;;;;;;6155634;23;20421;-88
2023/10/18 03:46:07;;;;;;;;;;;;;;;;;;6156715;23;20093;-87
2023/10/18 03:48:25;;;;;;;2.30;1.40;;;;;;;;;;6181870;23;20256;-87
2023/10/18 03:50:54;;;;;;;3.53;1.48;;;;;;;;;;6156020;23;20024;-87
2023/10/18 03:53:21;;;;;;;2.85;1.20;;;;;;;;;;6155173;23;20009;-87
2023/10/18 03:55:49;;;;;;;2.47;1.10;;;;;;;;;;6155655;23;20013;-87
2023/10/18 03:58:35;;;;;;;2.60;1.35;;;;;;;;;;6155199;23;20086;-87
2023/10/18 04:01:01;;;;;;;4.78;2.08;;;;;;;;;;6155565;23;20755;-87
2023/10/18 04:03:29;;;;;;;5.75;1.90;;;;;;;;;;6155519;23;20048;-88
2023/10/18 04:05:57;;;;;;;4.88;2.63;;;;;;;;;;6157327;23;20009;-88
2023/10/18 04:08:23;;;;;;;4.07;1.75;;;;;;;;;;6157559;23;20020;-88
2023/10/18 04:10:58;;;;;;;5.72;2.28;;;;;;;;;;6162497;23;20009;-88
2023/10/18 04:13:25;;;;;;;5.55;1.58;;;;;;;;;;6160042;23;20048;-88
2023/10/18 04:15:59;;;;;;;5.95;2.25;;;;;;;;;;6155894;23;20656;-88
2023/10/18 04:18:35;;;;;;;2.42;0.93;;;;;;;;;;6154957;23;20055;-88
2023/10/18 04:21:05;;;;;;;4.03;1.48;;;;;;;;;;6155555;23;20017;-88
2023/10/18 04:23:31;;;;;;;5.10;1.83;;;;;;;;;;6155273;23;20024;-88
2023/10/18 04:25:58;;;;;;;6.13;2.72;;;;;;;;;;6155979;23;20060;-88
2023/10/18 04:28:25;;;;;;;3.35;1.40;;;;;;;;;;6156014;23;20009;-87
2023/10/18 04:30:59;;;;;;;5.07;1.77;;;;;;;;;;6155509;23;20020;-87
2023/10/18 04:33:28;;;;;;;3.85;2.15;;;;;;;;;;6155744;23;20017;-87
2023/10/18 04:35:55;;;;;;;14.23;2.50;;;;;;;;;;6155576;23;20016;-87
2023/10/18 04:38:30;;;;;;;4.05;1.95;;;;;;;;;;6155230;23;20640;-87
2023/10/18 04:41:08;;;;;;;3.88;2.40;;;;;;;;;;6155295;23;20369;-87
2023/10/18 04:43:34;;;;;;;2.83;1.42;;;;;;;;;;6155698;23;20617;-87
2023/10/18 04:46:07;;;;;;;4.85;1.83;;;;;;;;;;6155117;23;20040;-87
2023/10/18 04:48:59;;;;;;;3.40;1.35;;;;;;;;;;6155860;23;20032;-87
2023/10/18 04:54:35;;;;;;;2.42;1.45;;;;;;;;;;6193774;23;20112;-87
2023/10/18 04:56:56;;;;;;;3.38;1.48;;;;;;;;;;6189298;23;20328;-87
2023/10/18 05:04:32;;;;;;;2.83;1.65;;;;;;;;;;6181669;23;20013;-88
2023/10/18 05:07:00;;;;;;;1.83;1.02;;;;;;;;;;6154906;23;20013;-88
2023/10/18 05:09:43;;;;;;;3.58;1.25;;;;;;;;;;6154216;23;20432;-88
2023/10/18 05:12:16;;;;;;;4.38;1.48;;;;;;;;;;6155051;23;20430;-87
2023/10/18 05:22:59;;;;;;;5.68;1.65;;;;;;;;;;6252267;23;20019;-87
2023/10/18 05:25:45;;;;;;;3.35;1.80;;;;;;;;;;6240075;23;20016;-86
2023/10/18 05:28:24;;;;;;;7.43;1.95;;;;;;;;;;6240382;23;20508;-86
2023/10/18 05:38:52;;;;;;;7.55;3.10;;;;;;;;;;6243918;23;20019;-87
2023/10/18 05:44:38;;;;;;;3.83;1.77;;;;;;;;;;6258290;23;20012;-89
2023/10/18 05:52:29;;;;;;;;;;;;;;;;;;;;;
2023/10/18 07:17:44;;;;;;;4.50;1.98;;;;;;;;;;6191986;22;20519;-88
2023/10/18 12:28:00;;;;;;;4.43;2.10;;;;;;;;;;6225542;23;20047;-90
2023/10/18 12:31:26;;;;;;;;;;;;;;;;;;;;;
2023/10/18 14:55:51;;;;;;;9.30;3.22;;;;;;;;;;6220246;22;20063;-91
2023/10/18 17:28:47;;;;;;;11.60;5.03;;;;;;;;;;6214480;22;20397;-90
2023/10/18 17:31:33;;;;;;;9.30;5.20;;;;;;;;;;6212692;23;20015;-90
2023/10/18 18:01:29;;;;;;;12.55;5.80;;;;;;;;;;6240840;23;20043;-89
2023/10/18 18:10:49;;;;;;;;;;;;;;;;;;;;;
